Multan, Pakistan

8:15 AM PKT on March 05, 2015 (GMT +0500)
Multan International | Change Station
CLOSE
Current Station
Airport
Location: Multan,
Elevation: 404 ft
Nearby Weather Stations

Elev 404 ft 30.20 °N, 71.42 °E | Updated 18 minutes ago

Smoke
Smoke
57 °F
Feels Like 57 °F
N
7
Wind Variable Wind from East

Today
High -- | Low -- °F
--% Chance of Precip.
Yesterday
High -- | Low -- °F
Precip. -- in
6:36 AM 6:15 PM
Full, 100% visible
Pressure 29.95 in
Visibility 2.5 miles
Clouds Scattered Clouds 4000 ft
Mostly Cloudy 12000 ft
Dew Point 50 °F
Humidity 77%
Rainfall 0.00 in
Snow Depth Not available.
UV 1 out of 12
Pollen Not available.
Air Quality Not available.
Flu Activity Not available.
METAR OPMT 050257Z 09006KT 4000 FU SCT040 BKN120 14/10 Q1014 TEMPO 36025KT 2000 TSRA FEW030CB

More Conditions Fewer Conditions

Pressure 29.95 in
Visibility 2.5 miles
Clouds Scattered Clouds 4000 ft
Mostly Cloudy 12000 ft
Dew Point 50 °F
Humidity 77%
Rainfall 0.00 in
Snow Depth Not available.
UV 1 out of 12
Pollen Not available.
Air Quality Not available.
Flu Activity Not available.
METAR OPMT 050257Z 09006KT 4000 FU SCT040 BKN120 14/10 Q1014 TEMPO 36025KT 2000 TSRA FEW030CB

More Conditions Fewer Conditions

10-Day Weather Forecast

Almanac

Astronomy

Mar. 05, 2015 Rise Set
Actual Time
Civil Twilight
Nautical Twilight
Astronomical Twilight
Moon
Length of Visible Light
Length of Day
Tomorrow will be .
, % of the Moon is Illuminated

Today's Extremes

Country Highs Country Lows

Community

WunderPhotos

Upload Photos

1,802,643 photos uploaded!

WunderBlogs® & News

Nearby

Air Quality

  Air Quality AQ Index Pollutant
Not available.

Snow Depth

Station Depth Elevation

Earthquake Activity

City Distance Mag. Time & Date
Minimum magnitude displayed is 2.5.

Coastal Water Temperatures

Place Temperature

Nearby Weather Stations